createdAt,value
2016-10-12T00:00:42.052Z,63.32
2016-10-12T00:01:52.366Z,63.51
2016-10-12T00:03:02.361Z,63.6
2016-10-12T00:04:12.653Z,63.32
2016-10-12T00:05:22.946Z,63.64
2016-10-12T00:06:32.926Z,63.89
2016-10-12T00:07:43.203Z,63.89
2016-10-12T00:08:53.485Z,63.6
2016-10-12T00:10:03.492Z,63.6
2016-10-12T00:11:13.508Z,63.6
2016-10-12T00:12:23.481Z,63.6
2016-10-12T00:13:33.452Z,63.54
2016-10-12T00:14:43.143Z,63.6
2016-10-12T00:15:53.120Z,63.51
2016-10-12T00:17:02.796Z,63.54
2016-10-12T00:18:13.098Z,63.6
2016-10-12T00:19:23.399Z,63.64
2016-10-12T00:20:33.384Z,63.54
2016-10-12T00:21:43.649Z,63.89
2016-10-12T00:22:53.937Z,63.7
2016-10-12T00:24:04.232Z,63.51
2016-10-12T00:25:14.206Z,63.35
2016-10-12T00:26:24.195Z,63.83
2016-10-12T00:27:33.873Z,63.35
2016-10-12T00:28:44.170Z,63.64
2016-10-12T00:29:54.447Z,63.73
2016-10-12T00:31:04.749Z,63.64
2016-10-12T00:32:14.753Z,63.64
2016-10-12T00:33:24.417Z,63.64
2016-10-12T00:34:34.403Z,63.54
2016-10-12T00:35:44.691Z,63.73
2016-10-12T00:36:54.988Z,63.35
2016-10-12T00:38:05.293Z,63.73
2016-10-12T00:39:15.598Z,63.73
2016-10-12T00:40:25.893Z,63.92
2016-10-12T00:41:36.185Z,63.54
2016-10-12T00:42:46.174Z,63.54
2016-10-12T00:43:56.176Z,63.73
2016-10-12T00:45:06.470Z,63.54
2016-10-12T00:46:16.748Z,63.54
2016-10-12T00:47:27.030Z,63.54
2016-10-12T00:48:37.305Z,63.92
2016-10-12T00:49:47.297Z,63.83
2016-10-12T00:50:57.569Z,63.83
2016-10-12T00:52:07.850Z,63.73
2016-10-12T00:53:18.133Z,63.73
2016-10-12T00:54:28.442Z,63.35
2016-10-12T00:55:38.724Z,63.92
2016-10-12T00:56:48.697Z,63.92
2016-10-12T00:57:58.993Z,63.73
2016-10-12T00:59:09.299Z,63.83
2016-10-12T01:00:19.273Z,63.73
2016-10-12T01:01:29.567Z,63.83
2016-10-12T01:02:39.840Z,63.83
2016-10-12T01:03:50.134Z,63.73
2016-10-12T01:05:00.124Z,63.83
2016-10-12T01:06:10.096Z,63.92
2016-10-12T01:07:20.387Z,63.83
2016-10-12T01:08:30.689Z,63.73
2016-10-12T01:09:40.976Z,63.83
2016-10-12T01:10:50.952Z,63.83
2016-10-12T01:12:01.250Z,63.83
2016-10-12T01:13:11.572Z,63.83
2016-10-12T01:14:21.855Z,63.83
2016-10-12T01:15:32.149Z,63.73
2016-10-12T01:16:42.146Z,63.73
2016-10-12T01:17:52.122Z,63.64
2016-10-12T01:19:02.406Z,63.64
2016-10-12T01:20:12.697Z,63.64
2016-10-12T01:21:22.993Z,63.54
2016-10-12T01:22:33.271Z,63.92
2016-10-12T01:23:42.932Z,63.45
2016-10-12T01:24:53.214Z,63.83
2016-10-12T01:26:03.502Z,63.83
2016-10-12T01:27:13.787Z,63.73
2016-10-12T01:28:23.770Z,63.73
2016-10-12T01:29:34.049Z,63.54
2016-10-12T01:30:44.332Z,63.54
2016-10-12T01:31:53.994Z,63.73
2016-10-12T01:33:03.980Z,63.73
2016-10-12T01:34:14.263Z,63.54
2016-10-12T01:35:24.243Z,63.54
2016-10-12T01:36:34.536Z,63.64
2016-10-12T01:37:44.837Z,63.92
2016-10-12T01:38:54.510Z,63.54
2016-10-12T01:40:04.511Z,63.73
2016-10-12T01:41:14.790Z,63.73
2016-10-12T01:42:24.760Z,63.54
2016-10-12T01:43:35.081Z,63.54
2016-10-12T01:44:45.354Z,63.73
2016-10-12T01:45:55.634Z,63.73
2016-10-12T01:47:05.920Z,63.83
2016-10-12T01:48:16.229Z,63.83
2016-10-12T01:49:26.195Z,63.35
2016-10-12T01:50:36.162Z,63.83
2016-10-12T01:51:46.447Z,63.73
2016-10-12T01:52:56.425Z,63.73
2016-10-12T01:54:06.416Z,63.73
2016-10-12T01:55:16.418Z,63.73
2016-10-12T01:56:26.718Z,63.35
2016-10-12T01:57:36.687Z,63.26
2016-10-12T01:58:46.679Z,63.54
2016-10-12T01:59:56.898Z,63.54
2016-10-12T02:01:07.177Z,63.83
2016-10-12T02:02:17.483Z,63.73
2016-10-12T02:03:27.765Z,63.45
2016-10-12T02:04:37.752Z,63.83
2016-10-12T02:05:48.063Z,63.92
2016-10-12T02:06:58.360Z,63.92
2016-10-12T02:08:08.024Z,63.45
2016-10-12T02:09:18.318Z,63.83
2016-10-12T02:10:28.614Z,63.54
2016-10-12T02:11:38.611Z,63.45
2016-10-12T02:12:48.593Z,63.83
2016-10-12T02:13:58.886Z,63.45
2016-10-12T02:15:09.197Z,63.54
2016-10-12T02:16:19.489Z,63.73
2016-10-12T02:17:29.457Z,63.64
2016-10-12T02:18:39.743Z,63.54
2016-10-12T02:19:50.029Z,63.83
2016-10-12T02:20:59.696Z,63.92
2016-10-12T02:22:09.986Z,63.54
2016-10-12T02:23:20.285Z,63.54
2016-10-12T02:24:30.577Z,63.73
2016-10-12T02:25:40.867Z,63.83
2016-10-12T02:26:51.156Z,63.73
2016-10-12T02:28:01.446Z,63.54
2016-10-12T02:29:11.441Z,63.45
2016-10-12T02:30:21.734Z,63.45
2016-10-12T02:31:31.710Z,63.45
2016-10-12T02:32:41.378Z,63.54
2016-10-12T02:33:51.358Z,63.54
2016-10-12T02:35:01.646Z,63.45
2016-10-12T02:36:11.616Z,63.73
2016-10-12T02:37:21.897Z,63.64
2016-10-12T02:38:31.866Z,63.73
2016-10-12T02:39:41.852Z,63.64
2016-10-12T02:40:52.153Z,63.54
2016-10-12T02:42:02.467Z,63.54
2016-10-12T02:43:12.441Z,63.54
2016-10-12T02:44:22.732Z,63.54
2016-10-12T02:45:33.021Z,63.73
2016-10-12T02:46:43.317Z,63.45
2016-10-12T02:47:53.304Z,63.92
2016-10-12T02:49:03.286Z,63.73
2016-10-12T02:50:13.602Z,63.73
2016-10-12T02:51:23.888Z,63.45
2016-10-12T02:52:34.179Z,63.73
2016-10-12T02:53:44.156Z,63.64
2016-10-12T02:54:54.115Z,63.67
2016-10-12T02:56:04.412Z,63.76
2016-10-12T02:57:14.692Z,63.57
2016-10-12T02:58:24.984Z,63.48
2016-10-12T02:59:35.265Z,63.76
2016-10-12T03:00:45.556Z,63.86
2016-10-12T03:32:51.116Z,60.57
2016-10-12T03:34:00.770Z,61.61
2016-10-12T03:35:10.736Z,62.75
2016-10-12T03:36:20.718Z,63.6
2016-10-12T03:37:30.380Z,63.89
2016-10-12T03:38:40.682Z,64.65
2016-10-12T03:39:50.967Z,65.13
2016-10-12T03:41:00.977Z,64.94
2016-10-12T03:42:11.270Z,65.16
2016-10-12T03:43:21.267Z,65.06
2016-10-12T03:44:31.248Z,65.25
2016-10-12T03:45:41.556Z,65.25
2016-10-12T03:46:51.596Z,65.35
2016-10-12T03:48:01.876Z,65.29
2016-10-12T03:49:12.162Z,65
2016-10-12T03:50:22.454Z,65
2016-10-12T03:51:32.760Z,65.03
2016-10-12T03:52:43.076Z,65.32
2016-10-12T03:53:53.059Z,64.84
2016-10-12T03:55:03.349Z,64.65
2016-10-12T03:56:13.640Z,64.75
2016-10-12T03:57:23.310Z,64.56
2016-10-12T03:58:33.601Z,64.87
2016-10-12T03:59:43.568Z,64.4
2016-10-12T04:00:53.854Z,64.59
2016-10-12T04:02:04.145Z,64.4
2016-10-12T04:03:14.431Z,64.59
2016-10-12T04:04:24.723Z,64.31
2016-10-12T04:05:34.704Z,64.21
2016-10-12T04:06:44.982Z,64.21
2016-10-12T04:07:54.957Z,64.31
2016-10-12T04:09:05.261Z,64.31
2016-10-12T04:10:15.552Z,64.21
2016-10-12T04:11:25.842Z,64.02
2016-10-12T04:12:36.141Z,64.02
2016-10-12T04:13:46.129Z,64.21
2016-10-12T04:14:55.793Z,64.02
2016-10-12T04:16:05.789Z,64.21
2016-10-12T04:17:16.063Z,64.12
2016-10-12T04:18:26.052Z,64.05
2016-10-12T04:19:36.024Z,64.21
2016-10-12T04:20:46.016Z,64.05
2016-10-12T04:21:56.302Z,64.24
2016-10-12T04:23:06.594Z,64.05
2016-10-12T04:24:16.275Z,63.86
2016-10-12T04:25:25.954Z,64.21
2016-10-12T04:26:35.930Z,64.02
2016-10-12T04:27:46.231Z,64.15
2016-10-12T04:28:56.232Z,64.02
2016-10-12T04:30:06.520Z,64.12
2016-10-12T04:31:16.835Z,64.62
2016-10-12T04:32:26.797Z,64.4
2016-10-12T04:33:37.076Z,64.4
2016-10-12T04:34:47.370Z,64.59
2016-10-12T04:35:57.663Z,64.4
2016-10-12T04:37:07.962Z,64.59
2016-10-12T04:38:18.256Z,64.59
2016-10-12T04:39:28.542Z,64.5
2016-10-12T04:40:38.820Z,64.4
2016-10-12T04:41:49.116Z,64.5
2016-10-12T04:42:59.407Z,64.31
2016-10-12T04:44:09.418Z,64.24
2016-10-12T04:45:19.392Z,64.02
2016-10-12T04:46:29.685Z,64.12
2016-10-12T04:47:39.670Z,64.15
2016-10-12T04:48:49.951Z,64.02
2016-10-12T04:50:00.244Z,64.31
2016-10-12T04:51:10.533Z,64.15
2016-10-12T04:52:20.565Z,63.86
2016-10-12T04:53:30.546Z,64.02
2016-10-12T04:54:40.213Z,64.21
2016-10-12T04:55:50.494Z,64.21
2016-10-12T04:57:00.781Z,64.12
2016-10-12T04:58:10.759Z,64.12
2016-10-12T04:59:21.053Z,64.12
2016-10-12T05:00:31.032Z,64.15
2016-10-12T05:01:41.338Z,64.21
2016-10-12T05:02:51.896Z,64.24
2016-10-12T05:04:01.881Z,63.86
2016-10-12T05:05:11.865Z,64.15
2016-10-12T05:06:22.156Z,64.21
2016-10-12T05:07:32.138Z,64.02
2016-10-12T05:08:42.424Z,63.76
2016-10-12T05:09:52.701Z,64.12
2016-10-12T05:11:02.372Z,63.96
2016-10-12T05:12:12.034Z,64.34
2016-10-12T05:13:22.321Z,64.24
2016-10-12T05:14:32.022Z,64.15
2016-10-12T05:15:42.004Z,64.05
2016-10-12T05:16:52.295Z,64.43
2016-10-12T05:18:02.586Z,64.24
2016-10-12T05:19:12.889Z,64.24
2016-10-12T05:20:22.856Z,64.34
2016-10-12T05:21:32.536Z,64.24
2016-10-12T05:22:42.827Z,64.43
2016-10-12T05:23:53.122Z,64.24
2016-10-12T05:25:03.117Z,64.15
2016-10-12T05:26:13.433Z,64.05
2016-10-12T05:27:23.728Z,64.34
2016-10-12T05:28:33.726Z,64.34
2016-10-12T05:29:43.393Z,64.24
2016-10-12T05:30:53.061Z,64.34
2016-10-12T05:32:03.347Z,64.05
2016-10-12T05:33:13.649Z,64.05
2016-10-12T05:34:23.647Z,64.05
2016-10-12T05:35:33.927Z,63.96
2016-10-12T05:36:43.893Z,64.24
2016-10-12T05:37:53.880Z,64.24
2016-10-12T05:39:03.543Z,64.24
2016-10-12T05:40:13.848Z,64.34
2016-10-12T05:41:23.820Z,64.24
2016-10-12T05:42:34.096Z,64.43
2016-10-12T05:43:44.088Z,64.34
2016-10-12T05:44:54.061Z,64.43
2016-10-12T05:46:04.338Z,64.34
2016-10-12T05:47:14.614Z,64.34
2016-10-12T05:48:24.608Z,64.34
2016-10-12T05:49:34.902Z,64.24
2016-10-12T05:50:45.192Z,64.24
2016-10-12T05:51:54.855Z,64.34
2016-10-12T05:53:05.186Z,64.24
2016-10-12T05:54:15.165Z,64.24
2016-10-12T05:55:25.442Z,64.34
2016-10-12T05:56:35.729Z,64.24
2016-10-12T05:57:45.709Z,64.15
2016-10-12T05:58:55.681Z,64.24
2016-10-12T06:00:05.677Z,64.15
2016-10-12T06:01:15.975Z,64.34
2016-10-12T06:02:25.944Z,64.34
2016-10-12T06:03:35.923Z,64.24
2016-10-12T06:04:46.209Z,64.34
2016-10-12T06:05:56.500Z,64.34
2016-10-12T06:07:06.489Z,64.24
2016-10-12T06:08:16.769Z,64.24
2016-10-12T06:09:27.041Z,64.15
2016-10-12T06:10:37.327Z,64.34
2016-10-12T06:11:47.617Z,64.24
2016-10-12T06:12:57.595Z,64.34
2016-10-12T06:14:07.565Z,64.24
2016-10-12T06:15:17.881Z,64.34
2016-10-12T06:16:28.182Z,64.34
2016-10-12T06:17:37.848Z,64.24
2016-10-12T06:18:48.378Z,64.31
2016-10-12T06:19:58.670Z,64.24
2016-10-12T06:21:08.660Z,64.24
2016-10-12T06:22:18.655Z,64.15
2016-10-12T06:23:28.326Z,64.34
2016-10-12T06:24:38.623Z,64.05
2016-10-12T06:25:48.606Z,63.96
2016-10-12T06:26:58.946Z,63.57
2016-10-12T06:28:08.943Z,63.86
2016-10-12T06:29:19.220Z,63.57
2016-10-12T06:30:29.206Z,63.76
2016-10-12T06:31:39.497Z,63.67
2016-10-12T06:32:49.496Z,63.76
2016-10-12T06:33:59.772Z,63.57
2016-10-12T06:35:10.040Z,63.57
2016-10-12T06:36:20.031Z,63.96
2016-10-12T06:37:30.008Z,63.67
2016-10-12T06:38:39.992Z,63.76
2016-10-12T06:39:50.283Z,63.76
2016-10-12T06:41:00.263Z,63.57
2016-10-12T06:42:10.539Z,63.67
2016-10-12T06:43:20.812Z,63.48
2016-10-12T06:44:30.788Z,63.57
2016-10-12T06:45:41.080Z,63.96
2016-10-12T06:46:51.366Z,63.76
2016-10-12T06:48:01.028Z,63.86
2016-10-12T06:49:11.019Z,63.76
2016-10-12T06:50:21.306Z,63.76
2016-10-12T06:51:31.290Z,64.15
2016-10-12T06:52:41.599Z,64.15
2016-10-12T06:53:51.806Z,63.86
2016-10-12T06:55:02.097Z,63.86
2016-10-12T06:56:12.390Z,63.96
2016-10-12T06:57:22.711Z,63.86
2016-10-12T06:58:32.684Z,63.96
2016-10-12T06:59:42.979Z,64.05
2016-10-12T07:00:52.967Z,63.96
2016-10-12T07:02:02.658Z,63.67
2016-10-12T07:03:12.330Z,63.57
2016-10-12T07:04:22.624Z,63.96
2016-10-12T07:05:32.606Z,63.57
2016-10-12T07:06:42.580Z,63.48
2016-10-12T07:07:52.242Z,63.86
2016-10-12T07:09:02.529Z,63.76
2016-10-12T07:10:12.810Z,63.67
2016-10-12T07:11:22.787Z,63.76
2016-10-12T07:12:33.099Z,63.86
2016-10-12T07:13:42.775Z,63.67
2016-10-12T07:14:52.753Z,63.57
2016-10-12T07:16:02.448Z,63.76
2016-10-12T07:17:12.117Z,63.86
2016-10-12T07:18:21.783Z,63.96
2016-10-12T07:19:31.759Z,64.05
2016-10-12T07:20:41.751Z,63.96
2016-10-12T07:21:51.437Z,63.96
2016-10-12T07:23:01.739Z,64.15
2016-10-12T07:24:12.032Z,64.05
2016-10-12T07:25:22.322Z,63.76
2016-10-12T07:26:32.310Z,63.67
2016-10-12T07:27:41.991Z,63.57
2016-10-12T07:28:51.978Z,63.57
2016-10-12T07:30:02.296Z,63.76
2016-10-12T07:31:12.596Z,63.76
2016-10-12T07:32:22.596Z,63.48
2016-10-12T07:33:32.263Z,63.6
2016-10-12T07:34:42.552Z,63.51
2016-10-12T07:35:52.242Z,63.6
2016-10-12T07:37:02.535Z,63.42
2016-10-12T07:38:12.527Z,63.42
2016-10-12T07:39:22.806Z,63.42
2016-10-12T07:40:33.070Z,63.51
2016-10-12T07:41:43.372Z,63.51
2016-10-12T07:42:53.079Z,63.51
2016-10-12T07:44:03.364Z,63.51
2016-10-12T07:45:13.667Z,63.51
2016-10-12T07:46:23.353Z,63.6
2016-10-12T07:47:33.650Z,63.6
2016-10-12T07:48:43.942Z,63.6
2016-10-12T07:49:53.914Z,63.7
2016-10-12T07:51:03.576Z,63.42
2016-10-12T07:52:13.561Z,63.42
2016-10-12T07:53:23.854Z,63.23
2016-10-12T07:54:33.830Z,63.7
2016-10-12T07:55:42.879Z,63.64
2016-10-12T07:56:53.164Z,63.13
2016-10-12T07:58:03.435Z,63.35
2016-10-12T07:59:13.721Z,63.45
2016-10-12T08:00:24.014Z,63.26
2016-10-12T08:01:34.296Z,63.35
2016-10-12T08:02:44.587Z,63.73
2016-10-12T08:03:54.573Z,63.92
2016-10-12T08:05:04.567Z,63.6
2016-10-12T08:06:14.872Z,63.7
2016-10-12T08:07:24.544Z,63.92
2016-10-12T08:08:34.836Z,64.09
2016-10-12T08:09:45.153Z,63.73
2016-10-12T08:10:55.426Z,63.73
2016-10-12T08:12:05.383Z,63.83
2016-10-12T08:13:15.365Z,63.64
2016-10-12T08:14:25.364Z,63.83
2016-10-12T08:15:35.656Z,63.83
2016-10-12T08:16:45.957Z,64.02
2016-10-12T08:17:55.939Z,63.73
2016-10-12T08:19:05.916Z,63.54
2016-10-12T08:20:16.202Z,63.26
2016-10-12T08:21:26.481Z,63.45
2016-10-12T08:22:36.456Z,62.97
2016-10-12T08:23:46.472Z,62.97
2016-10-12T08:24:56.136Z,63.07
2016-10-12T08:26:06.115Z,63
2016-10-12T08:27:16.102Z,63
2016-10-12T08:28:26.414Z,63.1
2016-10-12T08:29:36.401Z,63.1
2016-10-12T08:30:46.379Z,63.1
2016-10-12T08:31:56.897Z,62.91
2016-10-12T08:33:06.596Z,63
2016-10-12T08:34:16.875Z,63.1
2016-10-12T08:35:27.157Z,63
2016-10-12T08:36:37.165Z,63.2
2016-10-12T08:37:47.461Z,63
2016-10-12T08:38:57.144Z,63.2
2016-10-12T08:40:07.130Z,63
2016-10-12T08:41:17.119Z,63.1
2016-10-12T08:42:27.094Z,63
2016-10-12T08:43:37.406Z,63.2
2016-10-12T08:44:47.077Z,63
2016-10-12T08:45:56.749Z,63.1
2016-10-12T08:47:06.731Z,63.1
2016-10-12T08:48:16.393Z,63.2
2016-10-12T08:49:26.397Z,63.2
2016-10-12T08:50:36.386Z,63.03
2016-10-12T08:51:46.679Z,63.13
2016-10-12T08:52:56.909Z,63.1
2016-10-12T08:54:06.596Z,63.03
2016-10-12T08:55:16.892Z,63.13
2016-10-12T08:56:27.194Z,63.23
2016-10-12T08:57:37.176Z,63.03
2016-10-12T08:58:47.478Z,62.65
2016-10-12T08:59:57.454Z,63.23
2016-10-12T09:01:07.771Z,63.13
2016-10-12T09:02:17.748Z,63.03
2016-10-12T09:03:27.434Z,63.23
2016-10-12T09:04:37.730Z,63.13
2016-10-12T09:05:47.708Z,63.03
2016-10-12T09:06:57.400Z,62.84
2016-10-12T09:08:07.081Z,63
2016-10-12T09:09:17.369Z,63.03
2016-10-12T09:10:27.679Z,62.94
2016-10-12T09:11:36.737Z,63.57
2016-10-12T09:12:46.718Z,63.7
2016-10-12T09:13:56.699Z,63.29
2016-10-12T09:15:06.667Z,63.39
2016-10-12T09:16:16.643Z,63.48
2016-10-12T09:17:26.924Z,63.2
2016-10-12T09:18:37.241Z,63.29
2016-10-12T09:19:47.535Z,63.29
2016-10-12T09:20:57.509Z,63.48
2016-10-12T09:22:07.787Z,63.67
2016-10-12T09:23:17.459Z,63.2
2016-10-12T09:24:27.735Z,62.91
2016-10-12T09:25:38.026Z,63.2
2016-10-12T09:26:48.419Z,63.1
2016-10-12T09:27:58.702Z,62.91
2016-10-12T09:29:08.367Z,63
2016-10-12T09:30:18.644Z,62.91
2016-10-12T09:31:28.926Z,63.1
2016-10-12T09:32:38.926Z,63
2016-10-12T09:33:48.908Z,63
2016-10-12T09:34:59.214Z,63.2
2016-10-12T09:36:09.203Z,63.1
2016-10-12T09:37:19.187Z,63.2
2016-10-12T09:38:29.170Z,62.91
2016-10-12T09:39:39.153Z,63.1
2016-10-12T09:40:48.814Z,62.81
2016-10-12T09:41:58.505Z,62.71
2016-10-12T09:43:08.800Z,62.37
2016-10-12T09:44:18.779Z,62.71
2016-10-12T09:45:28.431Z,63.1
2016-10-12T09:46:38.432Z,63.1
2016-10-12T09:47:48.753Z,63.1
2016-10-12T09:48:59.021Z,62.75
2016-10-12T09:50:09.316Z,63
2016-10-12T09:51:19.596Z,63.1
2016-10-12T09:52:29.599Z,62.94
2016-10-12T09:53:39.903Z,62.37
2016-10-12T09:54:49.883Z,61.69
2016-10-12T09:56:00.171Z,61.79
2016-10-12T09:57:10.153Z,61.82
2016-10-12T09:58:20.454Z,61.63
2016-10-12T09:59:30.436Z,61.35
2016-10-12T10:00:40.725Z,61.47
2016-10-12T10:01:50.759Z,61.76
2016-10-12T10:03:01.275Z,61.38
2016-10-12T10:04:10.652Z,61.28
2016-10-12T10:05:20.643Z,61.47
2016-10-12T10:06:30.625Z,60.9
2016-10-12T10:07:40.319Z,60.55
2016-10-12T10:08:50.919Z,60.74
2016-10-12T10:10:00.967Z,60.26
2016-10-12T10:11:11.279Z,60.45
2016-10-12T10:12:21.266Z,60.1
2016-10-12T10:13:31.256Z,60.1
2016-10-12T10:14:40.930Z,60.19
2016-10-12T10:15:50.932Z,60.22
2016-10-12T10:17:01.268Z,60.22
2016-10-12T10:18:11.294Z,60.89
2016-10-12T10:19:21.597Z,60.77
2016-10-12T10:20:31.606Z,60.77
2016-10-12T10:21:41.905Z,60.7
2016-10-12T10:22:52.188Z,60.89
2016-10-12T10:24:02.473Z,60.7
2016-10-12T10:25:12.756Z,60.51
2016-10-12T10:26:22.762Z,60.7
2016-10-12T10:27:33.057Z,60.51
2016-10-12T10:28:43.057Z,60.61
2016-10-12T10:29:53.050Z,60.8
2016-10-12T10:31:03.330Z,60.8
2016-10-12T10:32:13.621Z,60.7
2016-10-12T10:33:23.314Z,60.61
2016-10-12T10:34:33.603Z,60.51
2016-10-12T10:35:43.582Z,60.73
2016-10-12T10:36:53.895Z,60.99
2016-10-12T10:38:03.902Z,60.99
2016-10-12T10:39:14.188Z,60.7
2016-10-12T10:40:24.176Z,60.7
2016-10-12T10:41:34.471Z,60.25
2016-10-12T10:42:44.775Z,60.35
2016-10-12T10:43:54.749Z,60.25
2016-10-12T10:45:04.750Z,60.93
2016-10-12T10:46:14.433Z,60.73
2016-10-12T10:47:24.726Z,60.44
2016-10-12T10:48:34.761Z,60.54
2016-10-12T10:49:45.058Z,60.54
2016-10-12T10:50:55.035Z,60.64
2016-10-12T10:52:04.399Z,60.83
2016-10-12T10:53:14.689Z,60.73
2016-10-12T10:54:24.974Z,60.64
2016-10-12T10:55:35.265Z,60.44
2016-10-12T10:56:45.576Z,60.54
2016-10-12T10:57:55.556Z,60.44
2016-10-12T10:59:05.837Z,60.73
2016-10-12T11:00:15.542Z,61.66
2016-10-12T11:01:25.509Z,61.4
2016-10-12T11:02:35.172Z,61.57
2016-10-12T11:03:45.482Z,61.85
2016-10-12T11:04:55.464Z,61.37
2016-10-12T11:06:05.782Z,61.66
2016-10-12T11:07:15.773Z,61.4
2016-10-12T11:08:26.061Z,61.79
2016-10-12T11:09:36.353Z,61.94
2016-10-12T11:10:46.652Z,61.21
2016-10-12T11:11:56.036Z,60.99
2016-10-12T11:13:06.337Z,60.99
2016-10-12T11:14:16.323Z,61.11
2016-10-12T11:15:26.623Z,61.31
2016-10-12T11:16:36.301Z,60.89
2016-10-12T11:17:45.968Z,60.83
2016-10-12T11:18:56.269Z,61.02
2016-10-12T11:20:06.258Z,60.89
2016-10-12T11:21:16.569Z,60.64
2016-10-12T11:22:26.851Z,60.54
2016-10-12T11:23:37.187Z,60.83
2016-10-12T11:24:47.155Z,60.64
2016-10-12T11:25:57.435Z,60.64
2016-10-12T11:27:07.737Z,60.73
2016-10-12T11:28:18.039Z,60.73
2016-10-12T11:29:27.405Z,61.6
2016-10-12T11:30:37.716Z,61.57
2016-10-12T11:31:48.027Z,62.04
2016-10-12T11:32:58.035Z,61.94
2016-10-12T11:34:08.327Z,62.43
2016-10-12T11:35:18.318Z,62.3
2016-10-12T11:36:28.291Z,62.11
2016-10-12T11:37:38.271Z,61.91
2016-10-12T11:38:48.484Z,61.91
2016-10-12T11:39:58.478Z,61.91
2016-10-12T11:41:08.784Z,62.2
2016-10-12T11:42:19.064Z,62.3
2016-10-12T11:43:29.075Z,61.15
2016-10-12T11:44:39.367Z,61.37
2016-10-12T11:45:49.668Z,61.57
2016-10-12T11:46:59.955Z,61.47
2016-10-12T11:48:09.626Z,60.89
2016-10-12T11:49:19.605Z,61.66
2016-10-12T11:50:29.912Z,61.47
2016-10-12T11:51:39.588Z,61.47
2016-10-12T11:52:49.598Z,61.37
2016-10-12T11:53:59.895Z,61.47
2016-10-12T11:55:10.227Z,61.47
2016-10-12T11:56:20.212Z,62.04
2016-10-12T11:57:30.181Z,62.01
2016-10-12T11:58:40.186Z,62.2
2016-10-12T11:59:50.179Z,62.2
2016-10-12T12:01:00.465Z,62.49
2016-10-12T12:02:10.152Z,63.23
2016-10-12T12:03:20.448Z,63.23
2016-10-12T12:04:30.751Z,63.57
2016-10-12T12:05:40.728Z,63.76
2016-10-12T12:06:51.015Z,64.02
2016-10-12T12:08:00.697Z,63.73
2016-10-12T12:09:10.376Z,63.54
2016-10-12T12:10:20.356Z,63.54
2016-10-12T12:11:30.328Z,63.26
2016-10-12T12:12:40.623Z,63.07
2016-10-12T12:13:51.133Z,62.97
2016-10-12T12:15:01.180Z,62.52
2016-10-12T12:16:11.473Z,61.85
2016-10-12T12:17:21.448Z,61.76
2016-10-12T12:18:31.745Z,61.38
2016-10-12T12:19:42.044Z,61.69
2016-10-12T12:20:52.019Z,60.93
2016-10-12T12:22:02.325Z,60.67
2016-10-12T12:23:12.317Z,60.86
2016-10-12T12:24:21.980Z,60.86
2016-10-12T12:25:32.300Z,61.51
2016-10-12T12:26:42.292Z,61.44
2016-10-12T12:27:52.594Z,61.12
2016-10-12T12:29:02.900Z,61.69
2016-10-12T12:30:13.182Z,61.79
2016-10-12T12:31:23.163Z,61.79
2016-10-12T12:32:33.146Z,61.88
2016-10-12T12:33:43.137Z,61.79
2016-10-12T12:34:53.118Z,62.17
2016-10-12T12:36:03.410Z,62.17
2016-10-12T12:37:13.718Z,62.27
2016-10-12T12:38:23.386Z,62.55
2016-10-12T12:39:33.384Z,62.37
2016-10-12T12:40:43.677Z,62.84
2016-10-12T12:41:53.968Z,63.32
2016-10-12T12:43:03.629Z,62.71
2016-10-12T12:44:13.622Z,63.1
2016-10-12T12:45:23.617Z,63.19
2016-10-12T12:46:33.311Z,63.29
2016-10-12T12:47:43.312Z,63.19
2016-10-12T12:48:53.295Z,62.9
2016-10-12T12:50:03.284Z,63
2016-10-12T12:51:13.263Z,62.81
2016-10-12T12:52:23.243Z,62.81
2016-10-12T12:53:33.215Z,62.9
2016-10-12T12:54:42.896Z,62.9
2016-10-12T12:55:52.868Z,63.19
2016-10-12T12:57:02.858Z,63.19
2016-10-12T12:58:12.852Z,63.1
2016-10-12T12:59:23.383Z,62.71
2016-10-12T13:00:33.045Z,63.29
2016-10-12T13:01:43.343Z,62.9
2016-10-12T13:02:53.643Z,62.81
2016-10-12T13:04:03.961Z,63.19
2016-10-12T13:05:13.647Z,63.19
2016-10-12T13:06:23.645Z,63
2016-10-12T13:07:33.902Z,62.9
2016-10-12T13:08:44.202Z,62.81
2016-10-12T13:09:54.194Z,63.1
2016-10-12T13:11:04.516Z,63
2016-10-12T13:12:14.822Z,63.07
2016-10-12T13:13:24.789Z,62.97
2016-10-12T13:14:35.099Z,62.97
2016-10-12T13:15:45.410Z,63.07
2016-10-12T13:16:55.411Z,63.07
2016-10-12T13:18:05.405Z,63.26
2016-10-12T13:19:15.074Z,63.16
2016-10-12T13:20:25.076Z,63.16
2016-10-12T13:21:35.060Z,62.78
2016-10-12T13:22:45.049Z,62.87
2016-10-12T13:23:55.049Z,63
2016-10-12T13:25:05.053Z,62.24
2016-10-12T13:26:15.392Z,62.43
2016-10-12T13:27:25.707Z,62.43
2016-10-12T13:28:36.011Z,62.71
2016-10-12T13:29:46.332Z,62.52
2016-10-12T13:30:56.903Z,62.62
2016-10-12T13:32:06.893Z,62.81
2016-10-12T13:33:17.198Z,62.43
2016-10-12T13:34:27.198Z,62.43
2016-10-12T13:35:37.524Z,62.33
2016-10-12T13:36:47.842Z,62.9
2016-10-12T13:37:57.520Z,62.81
2016-10-12T13:39:07.510Z,63
2016-10-12T13:40:17.215Z,63.19
2016-10-12T13:41:27.190Z,63
2016-10-12T13:42:37.206Z,63.19
2016-10-12T13:43:47.196Z,63.1
2016-10-12T13:44:56.880Z,62.43
2016-10-12T13:46:07.190Z,62.9
2016-10-12T13:47:17.508Z,62.81
2016-10-12T13:48:27.801Z,62.9
2016-10-12T13:49:37.788Z,62.81
2016-10-12T13:50:47.783Z,63.39
2016-10-12T13:51:58.125Z,63.19
2016-10-12T13:53:08.116Z,62.9
2016-10-12T13:54:18.113Z,63.1
2016-10-12T13:55:28.425Z,63.19
2016-10-12T13:56:38.427Z,63.1
2016-10-12T13:57:48.781Z,62.9
2016-10-12T13:58:59.098Z,63.16
2016-10-12T14:00:09.416Z,62.97
2016-10-12T14:01:19.738Z,62.97
2016-10-12T14:02:29.743Z,63.26
2016-10-12T14:03:39.734Z,62.68
2016-10-12T14:04:50.040Z,63.07
2016-10-12T14:06:00.369Z,63.26
2016-10-12T14:07:10.714Z,63.73
2016-10-12T14:08:21.058Z,63.54
2016-10-12T14:09:31.391Z,63.64
2016-10-12T14:10:41.423Z,63.73
2016-10-12T14:11:51.758Z,64.02
2016-10-12T14:13:02.076Z,63.89
2016-10-12T14:14:12.367Z,63.89
2016-10-12T14:15:22.675Z,64.09
2016-10-12T14:16:32.692Z,63.89
2016-10-12T14:17:42.690Z,63.8
2016-10-12T14:18:52.689Z,63.89
2016-10-12T14:20:02.689Z,63.89
2016-10-12T14:21:13.008Z,63.8
2016-10-12T14:22:23.323Z,63.99
2016-10-12T14:23:33.625Z,63.89
2016-10-12T14:24:43.904Z,64.09
2016-10-12T14:25:53.890Z,63.8
2016-10-12T14:27:04.166Z,63.51
2016-10-12T14:28:14.471Z,63.89
2016-10-12T14:29:24.470Z,63.99
2016-10-12T14:30:34.778Z,63.7
2016-10-12T14:31:44.464Z,63.99
2016-10-12T14:32:54.747Z,63.89
2016-10-12T14:34:04.764Z,63.89
2016-10-12T14:35:14.747Z,64.09
2016-10-12T14:36:24.732Z,64.18
2016-10-12T14:37:34.701Z,64.37
2016-10-12T14:38:45.000Z,64.37
2016-10-12T14:39:55.308Z,64.28
2016-10-12T14:41:05.594Z,64.15
2016-10-12T14:42:15.601Z,64.15
2016-10-12T14:43:25.913Z,64.34
2016-10-12T14:44:36.245Z,64.43
2016-10-12T14:45:46.226Z,64.34
2016-10-12T14:46:56.210Z,64.34
2016-10-12T14:48:06.512Z,64.15
2016-10-12T14:49:16.203Z,64.15
2016-10-12T14:50:26.481Z,64.05
2016-10-12T14:51:36.166Z,63.76
2016-10-12T14:52:46.148Z,63.67
2016-10-12T14:53:55.839Z,63.57
2016-10-12T14:55:05.812Z,64.05
2016-10-12T14:56:16.106Z,63.86
2016-10-12T14:57:26.085Z,63.76
2016-10-12T14:58:36.076Z,63.51
2016-10-12T14:59:45.754Z,63.86
2016-10-12T15:00:56.050Z,63.57
2016-10-12T15:02:05.741Z,63.86
2016-10-12T15:03:16.046Z,63.67
2016-10-12T15:04:25.729Z,63.76
2016-10-12T15:05:36.032Z,63.96
2016-10-12T15:06:46.030Z,63.57
2016-10-12T15:07:56.020Z,63.57
2016-10-12T15:09:06.017Z,64.05
2016-10-12T15:10:16.011Z,63.67
2016-10-12T15:11:26.029Z,63.86
2016-10-12T15:12:36.012Z,63.67
2016-10-12T15:13:46.311Z,63.67
2016-10-12T15:14:56.296Z,63.86
2016-10-12T15:16:05.971Z,63.96
2016-10-12T15:17:15.641Z,63.76
2016-10-12T15:18:25.953Z,63.76
2016-10-12T15:19:36.251Z,64.05
2016-10-12T15:20:46.573Z,64.05
2016-10-12T15:21:56.895Z,64.15
2016-10-12T15:23:07.192Z,63.76
2016-10-12T15:24:16.868Z,64.05
2016-10-12T15:25:27.181Z,64.05
2016-10-12T15:26:37.198Z,64.43
2016-10-12T15:27:47.500Z,64.4
2016-10-12T15:28:57.212Z,64.43
2016-10-12T15:30:07.213Z,64.43
2016-10-12T15:31:17.520Z,64.34
2016-10-12T15:32:27.841Z,64.31
2016-10-12T15:33:38.132Z,64.4
2016-10-12T15:34:48.453Z,64.5
2016-10-12T15:35:58.443Z,63.83
2016-10-12T15:37:08.423Z,64.21
2016-10-12T15:38:18.959Z,64.12
2016-10-12T15:39:28.964Z,64.31